sensor_id;sensor_type;location;lat;lon;timestamp;P1;durP1;ratioP1;P2;durP2;ratioP2
45314;SDS011;31051;51.540;5.852;2023-09-08T00:03:49;8.1;;;6.3;;
45314;SDS011;31051;51.540;5.852;2023-09-08T00:16:47;8.1;;;6.9;;
45314;SDS011;31051;51.540;5.852;2023-09-08T00:29:36;6.4;;;5.8;;
45314;SDS011;31051;51.540;5.852;2023-09-08T00:42:36;7.4;;;6.6;;
45314;SDS011;31051;51.540;5.852;2023-09-08T00:55:35;8.0;;;6.6;;
45314;SDS011;31051;51.540;5.852;2023-09-08T01:08:35;7.6;;;6.1;;
45314;SDS011;31051;51.540;5.852;2023-09-08T01:21:34;7.1;;;6.3;;
45314;SDS011;31051;51.540;5.852;2023-09-08T01:34:32;7.5;;;6.4;;
45314;SDS011;31051;51.540;5.852;2023-09-08T01:47:21;7.6;;;6.5;;
45314;SDS011;31051;51.540;5.852;2023-09-08T02:00:10;8.0;;;6.7;;
45314;SDS011;31051;51.540;5.852;2023-09-08T02:13:09;7.6;;;6.6;;
45314;SDS011;31051;51.540;5.852;2023-09-08T02:26:08;7.8;;;7.1;;
45314;SDS011;31051;51.540;5.852;2023-09-08T02:38:57;8.1;;;6.9;;
45314;SDS011;31051;51.540;5.852;2023-09-08T02:51:57;8.0;;;7.3;;
45314;SDS011;31051;51.540;5.852;2023-09-08T03:04:56;8.3;;;7.3;;
45314;SDS011;31051;51.540;5.852;2023-09-08T03:17:55;7.0;;;6.4;;
45314;SDS011;31051;51.540;5.852;2023-09-08T03:30:55;7.3;;;6.5;;
45314;SDS011;31051;51.540;5.852;2023-09-08T03:43:54;7.9;;;7.0;;
45314;SDS011;31051;51.540;5.852;2023-09-08T03:56:54;9.1;;;7.9;;
45314;SDS011;31051;51.540;5.852;2023-09-08T04:09:52;7.8;;;6.9;;
45314;SDS011;31051;51.540;5.852;2023-09-08T04:22:41;8.2;;;7.4;;
45314;SDS011;31051;51.540;5.852;2023-09-08T04:35:41;9.4;;;7.7;;
45314;SDS011;31051;51.540;5.852;2023-09-08T04:48:40;10.8;;;9.0;;
45314;SDS011;31051;51.540;5.852;2023-09-08T05:01:39;10.9;;;9.5;;
45314;SDS011;31051;51.540;5.852;2023-09-08T05:14:38;10.4;;;8.9;;
45314;SDS011;31051;51.540;5.852;2023-09-08T05:27:27;19.2;;;10.2;;
45314;SDS011;31051;51.540;5.852;2023-09-08T05:40:26;11.6;;;10.5;;
45314;SDS011;31051;51.540;5.852;2023-09-08T05:53:26;11.4;;;10.1;;
45314;SDS011;31051;51.540;5.852;2023-09-08T06:06:25;14.1;;;12.3;;
45314;SDS011;31051;51.540;5.852;2023-09-08T06:19:23;14.4;;;13.0;;
45314;SDS011;31051;51.540;5.852;2023-09-08T06:32:13;13.6;;;12.3;;
45314;SDS011;31051;51.540;5.852;2023-09-08T06:45:11;14.7;;;13.3;;
45314;SDS011;31051;51.540;5.852;2023-09-08T06:58:01;15.2;;;13.6;;
45314;SDS011;31051;51.540;5.852;2023-09-08T07:10:59;16.9;;;14.1;;
45314;SDS011;31051;51.540;5.852;2023-09-08T07:23:47;15.4;;;13.4;;
45314;SDS011;31051;51.540;5.852;2023-09-08T07:36:37;13.9;;;12.5;;
45314;SDS011;31051;51.540;5.852;2023-09-08T07:49:34;13.1;;;11.8;;
45314;SDS011;31051;51.540;5.852;2023-09-08T08:02:22;13.6;;;12.3;;
45314;SDS011;31051;51.540;5.852;2023-09-08T08:15:09;13.9;;;12.4;;
45314;SDS011;31051;51.540;5.852;2023-09-08T08:27:57;13.5;;;12.2;;
45314;SDS011;31051;51.540;5.852;2023-09-08T08:40:44;12.0;;;10.8;;
45314;SDS011;31051;51.540;5.852;2023-09-08T08:53:32;12.1;;;10.6;;
45314;SDS011;31051;51.540;5.852;2023-09-08T09:06:19;10.4;;;8.7;;
45314;SDS011;31051;51.540;5.852;2023-09-08T09:19:07;8.5;;;7.6;;
45314;SDS011;31051;51.540;5.852;2023-09-08T09:31:54;8.1;;;6.4;;
45314;SDS011;31051;51.540;5.852;2023-09-08T09:44:41;8.4;;;6.1;;
45314;SDS011;31051;51.540;5.852;2023-09-08T09:57:29;6.1;;;4.3;;
45314;SDS011;31051;51.540;5.852;2023-09-08T10:10:16;6.2;;;4.2;;
45314;SDS011;31051;51.540;5.852;2023-09-08T10:23:04;6.2;;;4.5;;
45314;SDS011;31051;51.540;5.852;2023-09-08T10:35:51;5.3;;;4.2;;
45314;SDS011;31051;51.540;5.852;2023-09-08T10:48:39;7.0;;;4.2;;
45314;SDS011;31051;51.540;5.852;2023-09-08T11:01:26;8.1;;;4.5;;
45314;SDS011;31051;51.540;5.852;2023-09-08T11:14:14;7.6;;;4.7;;
45314;SDS011;31051;51.540;5.852;2023-09-08T11:27:01;6.4;;;4.3;;
45314;SDS011;31051;51.540;5.852;2023-09-08T11:39:49;7.0;;;4.0;;
45314;SDS011;31051;51.540;5.852;2023-09-08T11:52:36;6.6;;;3.9;;
45314;SDS011;31051;51.540;5.852;2023-09-08T12:05:24;6.5;;;3.9;;
45314;SDS011;31051;51.540;5.852;2023-09-08T12:18:11;6.8;;;4.1;;
45314;SDS011;31051;51.540;5.852;2023-09-08T12:30:59;5.5;;;3.9;;
45314;SDS011;31051;51.540;5.852;2023-09-08T12:43:46;4.7;;;3.2;;
45314;SDS011;31051;51.540;5.852;2023-09-08T12:56:34;4.5;;;3.3;;
45314;SDS011;31051;51.540;5.852;2023-09-08T13:09:21;5.1;;;3.4;;
45314;SDS011;31051;51.540;5.852;2023-09-08T13:22:09;5.8;;;3.7;;
45314;SDS011;31051;51.540;5.852;2023-09-08T13:34:56;5.2;;;3.4;;
45314;SDS011;31051;51.540;5.852;2023-09-08T13:47:44;6.2;;;3.4;;
45314;SDS011;31051;51.540;5.852;2023-09-08T14:00:31;4.5;;;3.4;;
45314;SDS011;31051;51.540;5.852;2023-09-08T14:13:19;5.7;;;3.4;;
45314;SDS011;31051;51.540;5.852;2023-09-08T14:26:07;5.3;;;3.5;;
45314;SDS011;31051;51.540;5.852;2023-09-08T14:38:54;5.3;;;3.5;;
45314;SDS011;31051;51.540;5.852;2023-09-08T14:51:42;5.8;;;3.9;;
45314;SDS011;31051;51.540;5.852;2023-09-08T15:04:29;6.2;;;3.8;;
45314;SDS011;31051;51.540;5.852;2023-09-08T15:17:17;5.5;;;3.7;;
45314;SDS011;31051;51.540;5.852;2023-09-08T15:30:04;6.7;;;3.7;;
45314;SDS011;31051;51.540;5.852;2023-09-08T15:42:52;5.7;;;3.8;;
45314;SDS011;31051;51.540;5.852;2023-09-08T15:55:39;6.8;;;4.0;;
45314;SDS011;31051;51.540;5.852;2023-09-08T16:08:27;6.2;;;4.1;;
45314;SDS011;31051;51.540;5.852;2023-09-08T16:21:14;6.3;;;4.1;;
45314;SDS011;31051;51.540;5.852;2023-09-08T16:34:02;5.4;;;4.1;;
45314;SDS011;31051;51.540;5.852;2023-09-08T16:46:49;4.9;;;3.8;;
45314;SDS011;31051;51.540;5.852;2023-09-08T16:59:37;5.6;;;4.0;;
45314;SDS011;31051;51.540;5.852;2023-09-08T17:12:24;6.2;;;4.4;;
45314;SDS011;31051;51.540;5.852;2023-09-08T17:25:12;6.3;;;4.4;;
45314;SDS011;31051;51.540;5.852;2023-09-08T17:37:59;6.1;;;4.7;;
45314;SDS011;31051;51.540;5.852;2023-09-08T17:50:47;6.6;;;5.5;;
45314;SDS011;31051;51.540;5.852;2023-09-08T18:03:34;11.4;;;7.4;;
45314;SDS011;31051;51.540;5.852;2023-09-08T18:16:22;10.6;;;7.7;;
45314;SDS011;31051;51.540;5.852;2023-09-08T18:29:09;11.6;;;8.6;;
45314;SDS011;31051;51.540;5.852;2023-09-08T18:41:56;11.7;;;8.6;;
45314;SDS011;31051;51.540;5.852;2023-09-08T18:54:44;12.6;;;9.1;;
45314;SDS011;31051;51.540;5.852;2023-09-08T19:07:31;12.0;;;8.9;;
45314;SDS011;31051;51.540;5.852;2023-09-08T19:20:19;9.8;;;8.2;;
45314;SDS011;31051;51.540;5.852;2023-09-08T19:33:07;11.6;;;8.5;;
45314;SDS011;31051;51.540;5.852;2023-09-08T19:46:06;11.9;;;8.8;;
45314;SDS011;31051;51.540;5.852;2023-09-08T19:58:54;11.1;;;9.9;;
45314;SDS011;31051;51.540;5.852;2023-09-08T20:11:43;12.2;;;10.9;;
45314;SDS011;31051;51.540;5.852;2023-09-08T20:24:31;12.6;;;11.4;;
45314;SDS011;31051;51.540;5.852;2023-09-08T20:37:20;12.8;;;11.7;;
45314;SDS011;31051;51.540;5.852;2023-09-08T20:50:20;13.4;;;12.1;;
45314;SDS011;31051;51.540;5.852;2023-09-08T21:03:18;15.0;;;13.6;;
45314;SDS011;31051;51.540;5.852;2023-09-08T21:16:08;18.8;;;17.0;;
45314;SDS011;31051;51.540;5.852;2023-09-08T21:29:06;18.0;;;16.5;;
45314;SDS011;31051;51.540;5.852;2023-09-08T21:41:54;19.7;;;17.9;;
45314;SDS011;31051;51.540;5.852;2023-09-08T21:54:44;21.2;;;19.4;;
45314;SDS011;31051;51.540;5.852;2023-09-08T22:07:43;20.6;;;18.8;;
45314;SDS011;31051;51.540;5.852;2023-09-08T22:20:42;19.8;;;18.1;;
45314;SDS011;31051;51.540;5.852;2023-09-08T22:33:31;19.3;;;17.6;;
45314;SDS011;31051;51.540;5.852;2023-09-08T22:46:29;19.0;;;17.3;;
45314;SDS011;31051;51.540;5.852;2023-09-08T22:59:18;18.1;;;16.6;;
45314;SDS011;31051;51.540;5.852;2023-09-08T23:12:07;17.0;;;15.6;;
45314;SDS011;31051;51.540;5.852;2023-09-08T23:25:06;18.8;;;17.1;;
45314;SDS011;31051;51.540;5.852;2023-09-08T23:37:54;20.5;;;18.6;;
45314;SDS011;31051;51.540;5.852;2023-09-08T23:50:42;18.2;;;16.7;;
